Index of /ubuntu/ubuntu/ubuntu/dists

[ICO]NameLast modifiedSizeDescription

[PARENTDIR]Parent Directory  -  
[DIR]jammy-proposed/2022-10-07 00:06 -  
[DIR]kinetic-proposed/2022-10-07 00:06 -  
[DIR]devel-proposed/2022-10-07 00:06 -  
[DIR]kinetic/2022-10-07 00:06 -  
[DIR]devel/2022-10-07 00:06 -  
[DIR]focal-updates/2022-10-06 23:46 -  
[DIR]xenial-backports/2022-10-06 23:23 -  
[DIR]xenial-updates/2022-10-06 23:23 -  
[DIR]xenial-security/2022-10-06 23:22 -  
[DIR]bionic-backports/2022-10-06 23:21 -  
[DIR]bionic-proposed/2022-10-06 23:21 -  
[DIR]bionic-updates/2022-10-06 23:21 -  
[DIR]bionic-security/2022-10-06 23:20 -  
[DIR]focal-backports/2022-10-06 23:18 -  
[DIR]focal-proposed/2022-10-06 23:18 -  
[DIR]focal-security/2022-10-06 23:17 -  
[DIR]jammy-backports/2022-10-06 23:16 -  
[DIR]jammy-updates/2022-10-06 23:15 -  
[DIR]jammy-security/2022-10-06 23:15 -  
[DIR]xenial-proposed/2022-10-06 15:44 -  
[DIR]kinetic-updates/2022-05-03 06:06 -  
[DIR]devel-updates/2022-05-03 06:06 -  
[DIR]kinetic-security/2022-05-03 06:06 -  
[DIR]devel-security/2022-05-03 06:06 -  
[DIR]kinetic-backports/2022-05-03 05:10 -  
[DIR]devel-backports/2022-05-03 05:10 -  
[DIR]jammy/2022-04-22 01:16 -  
[DIR]trusty-proposed/2020-06-06 14:57 -  
[DIR]trusty-updates/2020-05-29 16:08 -  
[DIR]trusty-security/2020-05-29 16:06 -  
[DIR]focal/2020-04-24 01:34 -  
[DIR]bionic/2018-04-27 07:38 -  
[DIR]trusty-backports/2017-12-15 17:49 -  
[DIR]xenial/2016-04-21 15:43 -  
[DIR]trusty/2015-10-07 19:44 -